KWST/WST METAR and TAF weather

Enter ICAO airport designator
Station Type Date Time Source
KWST METAR 2019/09/20 09:53 UTC NOAA

KWST 200953Z AUTO 00000KT 10SM CLR 07/06 A3023 RMK AO2 SLP235 T00670056


Station Type Date Time Source
KWST Decoded METAR 2019/09/20 09:53 UTC NOAA

WESTERLY STATE AIRPORT, RI, United States (KWST) 41-21N 071-48W 21M
Sep 20, 2019 - 05:53 AM EDT / 2019.09.20 0953 UTC
Wind: Calm:0
Visibility: 10 mile(s):0
Sky conditions: clear
Temperature: 44.1 F (6.7 C)
Dew Point: 42.1 F (5.6 C)
Relative Humidity: 92%
Pressure (altimeter): 30.23 in. Hg (1023 hPa)
ob: KWST 200953Z AUTO 00000KT 10SM CLR 07/06 A3023 RMK AO2 SLP235 T00670056
cycle: 10

Station Type Date Time Source
KWST TAF UTC NOAA

Error!

Example: see airport list